Time;durP1;ratioP1;P1;durP2;ratioP2;P2;SDS_P1;SDS_P2;PMS_P1;PMS_P2;Temp;Humidity;BMP_temperature;BMP_pressure;BME280_temperature;BME280_humidity;BME280_pressure;Samples;Min_cycle;Max_cycle;Signal;HPM_P1;HPM_P2
2023/08/12 00:01:52;;;;;;;9.13;7.32;;;26.00;79.90;;;;;;5044749;28;20044;-85
2023/08/12 00:04:18;;;;;;;7.97;7.28;;;26.00;79.90;;;;;;5014701;28;20033;-83
2023/08/12 00:06:44;;;;;;;8.25;7.35;;;26.00;79.90;;;;;;5046939;28;20032;-85
2023/08/12 00:09:11;;;;;;;8.85;7.95;;;26.00;79.90;;;;;;5045104;28;20037;-85
2023/08/12 00:11:38;;;;;;;8.35;7.57;;;26.00;79.90;;;;;;5043683;28;20029;-84
2023/08/12 00:14:04;;;;;;;8.77;7.97;;;26.00;79.80;;;;;;5042875;28;20415;-85
2023/08/12 00:16:30;;;;;;;8.30;7.43;;;26.00;79.70;;;;;;5044061;28;20533;-84
2023/08/12 00:18:56;;;;;;;9.00;8.13;;;26.00;79.70;;;;;;5043939;28;20132;-86
2023/08/12 00:21:22;;;;;;;8.23;7.53;;;26.00;79.80;;;;;;5025548;28;20119;-81
2023/08/12 00:23:49;;;;;;;8.93;8.02;;;26.00;79.80;;;;;;5023693;28;20025;-84
2023/08/12 00:26:15;;;;;;;7.93;7.22;;;26.00;79.90;;;;;;5043277;28;20061;-83
2023/08/12 00:28:41;;;;;;;8.38;7.65;;;26.00;79.90;;;;;;5022255;28;20411;-83
2023/08/12 00:31:07;;;;;;;8.38;7.68;;;26.00;79.90;;;;;;5029115;28;20569;-83
2023/08/12 00:33:34;;;;;;;8.48;7.28;;;26.00;79.90;;;;;;5043329;28;20030;-84
2023/08/12 00:36:00;;;;;;;8.48;7.68;;;26.00;80.00;;;;;;5043370;28;20033;-84
2023/08/12 00:38:28;;;;;;;8.70;7.80;;;26.00;80.10;;;;;;5028390;28;20128;-82
2023/08/12 00:40:53;;;;;;;8.70;7.90;;;25.90;80.10;;;;;;5023893;28;20087;-84
2023/08/12 00:43:20;;;;;;;9.07;8.20;;;25.90;80.00;;;;;;5027376;28;20045;-83
2023/08/12 00:45:46;;;;;;;8.43;7.65;;;26.00;80.10;;;;;;5043840;28;20025;-81
2023/08/12 00:48:12;;;;;;;8.60;7.90;;;25.90;80.00;;;;;;5023566;28;20060;-83
2023/08/12 00:50:40;;;;;;;8.73;7.90;;;25.90;80.00;;;;;;5021063;28;20419;-82
2023/08/12 00:53:07;;;;;;;10.13;8.43;;;25.90;80.00;;;;;;5029174;28;20029;-80
2023/08/12 00:55:34;;;;;;;9.80;7.70;;;25.90;80.10;;;;;;5029601;28;20132;-84
2023/08/12 00:58:00;;;;;;;8.80;8.00;;;25.90;80.00;;;;;;5041751;28;20032;-83
2023/08/12 01:00:26;;;;;;;10.25;8.02;;;25.90;80.00;;;;;;5012785;28;20067;-81
2023/08/12 01:02:53;;;;;;;8.93;8.10;;;25.90;80.00;;;;;;5022292;28;20029;-84
2023/08/12 01:05:20;;;;;;;8.23;7.53;;;25.90;80.10;;;;;;5041353;28;20055;-85
2023/08/12 01:07:46;;;;;;;9.05;8.25;;;25.90;80.10;;;;;;5027675;28;20132;-81
2023/08/12 01:10:16;;;;;;;8.60;7.80;;;25.90;80.10;;;;;;5021711;28;20025;-84
2023/08/12 01:12:57;;;;;;;8.63;7.93;;;25.90;80.10;;;;;;5023943;28;20432;-83
2023/08/12 01:15:26;;;;;;;9.07;8.20;;;25.90;80.10;;;;;;5042153;28;20040;-85
2023/08/12 01:17:55;;;;;;;9.45;8.25;;;25.90;80.10;;;;;;5042358;28;20614;-84
2023/08/12 01:20:24;;;;;;;8.82;8.00;;;25.90;80.60;;;;;;5024054;28;20087;-83
2023/08/12 01:22:58;;;;;;;8.43;7.60;;;25.90;79.90;;;;;;5027432;28;20048;-84
2023/08/12 01:25:27;;;;;;;9.13;8.15;;;25.90;80.60;;;;;;5023907;28;20040;-84
2023/08/12 01:27:53;;;;;;;8.82;7.80;;;25.90;79.90;;;;;;5021096;28;20033;-81
2023/08/12 01:30:22;;;;;;;8.70;7.90;;;25.90;79.80;;;;;;5022340;28;20122;-83
2023/08/12 01:32:48;;;;;;;9.27;8.18;;;25.90;79.80;;;;;;5027541;28;20080;-83
2023/08/12 01:35:35;;;;;;;8.63;7.25;;;25.90;79.80;;;;;;5042949;28;20029;-83
2023/08/12 01:38:04;;;;;;;9.73;7.82;;;25.90;79.70;;;;;;5027905;28;20033;-83
2023/08/12 01:40:32;;;;;;;8.50;7.70;;;25.90;79.70;;;;;;5039704;28;20547;-80
2023/08/12 01:42:59;;;;;;;9.13;8.07;;;25.90;79.70;;;;;;5021254;28;20087;-84
2023/08/12 01:45:26;;;;;;;9.13;8.27;;;25.90;79.70;;;;;;5042623;28;20070;-80
2023/08/12 01:47:52;;;;;;;9.13;8.23;;;25.90;79.70;;;;;;5023015;28;20040;-85
2023/08/12 01:50:19;;;;;;;8.73;7.93;;;25.90;79.60;;;;;;5043125;28;20033;-85
2023/08/12 01:52:45;;;;;;;9.00;8.10;;;25.90;79.60;;;;;;5021554;28;20061;-85
2023/08/12 01:55:10;;;;;;;9.18;8.15;;;25.90;79.60;;;;;;5022086;28;20067;-81
2023/08/12 01:57:37;;;;;;;8.63;7.72;;;25.90;79.50;;;;;;5022874;28;20538;-84
2023/08/12 02:00:06;;;;;;;11.48;9.00;;;25.90;79.50;;;;;;5023901;28;20519;-84
2023/08/12 02:02:45;;;;;;;8.95;8.05;;;25.90;79.50;;;;;;5041865;28;20060;-84
2023/08/12 02:05:12;;;;;;;11.02;8.60;;;25.90;79.60;;;;;;5023142;28;20515;-85
2023/08/12 02:07:38;;;;;;;9.18;8.27;;;25.80;79.60;;;;;;5007933;28;20414;-87
2023/08/12 02:10:05;;;;;;;9.45;8.40;;;25.80;79.70;;;;;;5022372;28;20040;-85
2023/08/12 02:12:31;;;;;;;10.90;8.32;;;25.80;79.80;;;;;;5041346;28;20028;-84
2023/08/12 02:14:57;;;;;;;9.43;8.63;;;25.80;79.90;;;;;;5041523;28;20484;-84
2023/08/12 02:17:23;;;;;;;11.07;8.73;;;25.80;80.00;;;;;;5020185;28;20051;-84
2023/08/12 02:19:51;;;;;;;8.57;7.78;;;25.80;79.90;;;;;;5023106;28;20431;-83
2023/08/12 02:22:17;;;;;;;10.10;9.07;;;25.80;80.00;;;;;;5043073;28;20047;-86
2023/08/12 02:24:43;;;;;;;9.50;8.60;;;25.80;80.00;;;;;;5025004;28;20036;-84
2023/08/12 02:27:09;;;;;;;10.27;9.05;;;25.80;80.00;;;;;;5019312;28;20511;-83
2023/08/12 02:29:35;;;;;;;9.57;8.60;;;25.80;80.10;;;;;;5025869;28;20060;-84
2023/08/12 02:32:01;;;;;;;9.40;8.50;;;25.80;80.10;;;;;;5039603;28;20039;-84
2023/08/12 02:34:28;;;;;;;10.15;9.02;;;25.70;80.10;;;;;;5040057;28;20033;-84
2023/08/12 02:36:54;;;;;;;10.27;8.82;;;25.70;80.20;;;;;;5020222;28;20044;-84
2023/08/12 02:39:20;;;;;;;10.00;9.00;;;25.70;80.10;;;;;;5023896;28;20044;-84
2023/08/12 02:41:46;;;;;;;10.27;8.73;;;25.70;80.10;;;;;;5026408;28;20045;-81
2023/08/12 02:44:12;;;;;;;10.27;9.30;;;25.70;80.10;;;;;;5026188;28;20024;-85
2023/08/12 02:46:38;;;;;;;9.90;8.50;;;25.70;80.00;;;;;;5022260;28;20389;-84
2023/08/12 02:49:04;;;;;;;9.65;8.32;;;25.70;80.10;;;;;;5040235;28;20029;-84
2023/08/12 02:51:30;;;;;;;9.38;8.48;;;25.70;80.00;;;;;;5020469;28;20514;-84
2023/08/12 02:53:56;;;;;;;10.48;8.48;;;25.70;79.90;;;;;;5010984;28;20064;-84
2023/08/12 02:56:22;;;;;;;11.98;8.80;;;25.70;80.00;;;;;;5008660;28;20516;-84
2023/08/12 02:58:48;;;;;;;9.65;8.75;;;25.70;79.90;;;;;;5040889;28;20044;-84
2023/08/12 03:01:15;;;;;;;9.80;8.77;;;25.70;79.90;;;;;;5019714;28;20515;-85
2023/08/12 03:03:42;;;;;;;11.25;9.07;;;25.70;79.90;;;;;;5018942;28;20570;-82
2023/08/12 03:06:08;;;;;;;9.73;8.80;;;25.70;79.90;;;;;;5025817;28;20033;-85
2023/08/12 03:08:34;;;;;;;9.50;8.50;;;25.70;79.90;;;;;;5027333;28;20048;-87
2023/08/12 03:11:01;;;;;;;12.25;8.52;;;25.70;79.90;;;;;;5010044;28;20069;-85
2023/08/12 03:13:28;;;;;;;8.95;8.02;;;25.70;79.80;;;;;;5004993;28;20044;-84
2023/08/12 03:15:55;;;;;;;10.25;8.65;;;25.70;79.80;;;;;;5010057;28;20079;-84
2023/08/12 03:18:21;;;;;;;8.93;8.13;;;25.60;79.60;;;;;;5040133;28;20036;-83
2023/08/12 03:20:47;;;;;;;9.98;8.98;;;25.60;79.60;;;;;;5022847;28;20044;-83
2023/08/12 03:23:14;;;;;;;10.25;8.68;;;25.60;79.60;;;;;;5021710;28;20411;-84
2023/08/12 03:25:42;;;;;;;9.73;8.73;;;25.60;79.70;;;;;;5023709;28;20037;-82
2023/08/12 03:28:08;;;;;;;9.52;8.52;;;25.60;79.70;;;;;;5010306;28;20035;-84
2023/08/12 03:30:34;;;;;;;9.27;8.27;;;25.60;79.70;;;;;;5039878;28;20049;-84
2023/08/12 03:33:01;;;;;;;9.48;8.40;;;25.50;79.60;;;;;;5020614;28;20029;-83
2023/08/12 03:35:31;;;;;;;9.55;8.55;;;25.60;79.60;;;;;;5026307;28;20037;-84
2023/08/12 03:37:57;;;;;;;8.90;8.15;;;25.60;79.60;;;;;;5038713;28;20036;-84
2023/08/12 03:40:23;;;;;;;8.95;8.05;;;25.60;79.70;;;;;;5025818;28;20052;-83
2023/08/12 03:42:49;;;;;;;9.18;8.25;;;25.60;79.50;;;;;;5020332;28;20029;-84
2023/08/12 03:45:17;;;;;;;10.82;8.43;;;25.60;79.40;;;;;;5022376;28;20962;-84
2023/08/12 03:47:43;;;;;;;11.32;8.15;;;25.60;79.40;;;;;;5037910;28;20621;-84
2023/08/12 03:50:09;;;;;;;9.05;8.18;;;25.60;79.20;;;;;;5022004;28;20108;-83
2023/08/12 03:52:35;;;;;;;10.57;8.23;;;25.60;79.30;;;;;;5018210;28;20041;-84
2023/08/12 03:55:01;;;;;;;12.38;8.30;;;25.60;79.00;;;;;;5026027;28;20118;-81
2023/08/12 03:57:27;;;;;;;10.90;8.13;;;25.60;79.10;;;;;;5040696;28;20474;-83
2023/08/12 03:59:54;;;;;;;9.13;8.23;;;25.60;79.00;;;;;;5040874;28;20041;-84
2023/08/12 04:02:20;;;;;;;9.10;8.20;;;25.60;79.00;;;;;;5038980;28;20063;-85
2023/08/12 04:04:46;;;;;;;9.57;8.30;;;25.70;79.10;;;;;;5023504;28;20500;-84
2023/08/12 04:07:12;;;;;;;10.02;8.25;;;25.70;79.10;;;;;;5026655;28;20041;-84
2023/08/12 04:09:38;;;;;;;9.57;8.68;;;25.70;79.10;;;;;;5040177;28;20577;-84
2023/08/12 04:12:04;;;;;;;9.40;7.72;;;25.70;79.70;;;;;;5019724;28;20095;-83
2023/08/12 04:14:30;;;;;;;9.38;8.48;;;25.70;79.00;;;;;;5022749;28;20508;-84
2023/08/12 04:16:56;;;;;;;9.23;8.32;;;25.70;78.90;;;;;;5018974;28;20039;-84
2023/08/12 04:19:22;;;;;;;9.10;8.30;;;25.70;78.80;;;;;;4989774;28;20071;-81
2023/08/12 04:21:48;;;;;;;8.90;8.10;;;25.70;78.60;;;;;;5007700;28;20029;-84
2023/08/12 04:24:14;;;;;;;8.93;7.72;;;25.70;78.50;;;;;;5022136;28;20499;-83
2023/08/12 04:26:40;;;;;;;8.98;8.18;;;25.70;78.30;;;;;;5009278;28;20052;-82
2023/08/12 04:29:06;;;;;;;9.23;8.32;;;25.70;78.20;;;;;;5025871;28;20041;-83
2023/08/12 04:31:36;;;;;;;8.90;7.95;;;25.70;78.00;;;;;;5011951;28;20048;-84
2023/08/12 04:34:03;;;;;;;10.23;7.45;;;25.70;78.00;;;;;;5029346;28;20036;-80
2023/08/12 04:36:30;;;;;;;9.13;8.32;;;25.70;77.80;;;;;;5030065;28;20713;-83
2023/08/12 04:38:58;;;;;;;9.30;8.20;;;25.70;77.80;;;;;;5012011;28;20167;-85
2023/08/12 04:41:24;;;;;;;8.38;7.65;;;25.70;77.70;;;;;;5013656;28;20187;-86
2023/08/12 04:43:52;;;;;;;8.93;8.18;;;25.70;77.70;;;;;;5022294;28;20034;-83
2023/08/12 04:46:18;;;;;;;11.15;7.72;;;25.70;77.50;;;;;;5026532;28;20496;-83
2023/08/12 04:48:45;;;;;;;10.57;8.68;;;25.70;77.30;;;;;;5004654;28;20037;-83
2023/08/12 04:51:11;;;;;;;11.20;8.38;;;25.70;77.20;;;;;;5023436;28;20483;-87
2023/08/12 04:53:37;;;;;;;9.85;8.48;;;25.70;77.20;;;;;;5043191;28;20033;-82
2023/08/12 04:56:03;;;;;;;9.57;8.57;;;25.70;77.00;;;;;;5020981;28;20041;-81
2023/08/12 04:58:30;;;;;;;13.40;8.80;;;25.70;77.00;;;;;;5024056;28;20049;-85
2023/08/12 05:00:57;;;;;;;9.35;8.18;;;25.70;77.00;;;;;;5024210;28;20029;-85
2023/08/12 05:03:24;;;;;;;9.52;8.23;;;25.70;76.90;;;;;;5029251;28;20025;-85
2023/08/12 05:05:52;;;;;;;8.57;7.68;;;25.70;76.80;;;;;;5027444;28;20033;-85
2023/08/12 05:08:20;;;;;;;8.90;7.95;;;25.70;76.80;;;;;;5024600;28;20078;-83
2023/08/12 05:10:49;;;;;;;9.77;7.80;;;25.70;76.60;;;;;;5023170;28;20033;-81
2023/08/12 05:13:16;;;;;;;8.73;8.02;;;25.70;76.40;;;;;;5023878;28;20045;-85
2023/08/12 05:15:46;;;;;;;8.63;7.93;;;25.70;76.60;;;;;;5013061;28;20193;-82
2023/08/12 05:18:13;;;;;;;9.13;7.93;;;25.70;76.40;;;;;;5011720;28;20125;-83
2023/08/12 05:20:41;;;;;;;8.45;7.75;;;25.60;76.40;;;;;;5042528;28;20116;-83
2023/08/12 05:23:07;;;;;;;9.00;8.15;;;25.60;76.40;;;;;;5040937;28;20041;-83
2023/08/12 05:25:33;;;;;;;8.43;7.63;;;25.60;76.50;;;;;;5021622;28;20038;-83
2023/08/12 05:27:59;;;;;;;9.50;8.30;;;25.60;76.40;;;;;;5041944;28;20044;-83
2023/08/12 05:30:25;;;;;;;9.45;8.10;;;25.60;76.50;;;;;;5043485;28;20056;-83
2023/08/12 05:32:51;;;;;;;9.05;8.00;;;25.60;76.60;;;;;;5041092;28;20041;-82
2023/08/12 05:35:17;;;;;;;9.27;8.35;;;25.60;76.60;;;;;;5040511;28;20025;-82
2023/08/12 05:37:43;;;;;;;8.95;8.05;;;25.50;76.60;;;;;;5043534;28;20037;-80
2023/08/12 05:40:09;;;;;;;10.70;8.27;;;25.50;76.80;;;;;;5044060;28;20431;-83
2023/08/12 05:42:36;;;;;;;8.63;7.82;;;25.50;76.70;;;;;;5042227;28;20094;-83
2023/08/12 05:45:03;;;;;;;8.73;7.80;;;25.50;76.80;;;;;;5043343;28;20040;-81
2023/08/12 05:47:32;;;;;;;9.50;8.63;;;25.50;76.90;;;;;;5043174;28;20029;-84
2023/08/12 05:49:58;;;;;;;11.10;8.73;;;25.50;76.80;;;;;;5023563;28;20116;-84
2023/08/12 05:52:24;;;;;;;9.60;8.70;;;25.40;76.90;;;;;;5042723;28;20215;-85
2023/08/12 05:54:50;;;;;;;9.63;8.68;;;25.40;77.10;;;;;;5042629;28;20077;-85
2023/08/12 05:57:16;;;;;;;8.98;8.00;;;25.40;77.30;;;;;;5023343;28;20036;-85
2023/08/12 05:59:41;;;;;;;9.07;8.18;;;25.40;77.30;;;;;;5027413;28;20056;-85
2023/08/12 06:02:09;;;;;;;9.18;8.38;;;25.40;77.80;;;;;;5040701;28;20040;-82
2023/08/12 06:04:35;;;;;;;9.40;8.48;;;25.40;77.20;;;;;;5040934;28;20134;-80
2023/08/12 06:07:01;;;;;;;9.40;8.07;;;25.40;77.00;;;;;;5038562;28;20086;-83
2023/08/12 06:09:27;;;;;;;9.10;8.20;;;25.40;77.00;;;;;;5040887;28;20041;-83
2023/08/12 06:11:53;;;;;;;9.10;8.07;;;25.40;77.10;;;;;;5040773;28;20530;-83
2023/08/12 06:14:19;;;;;;;9.13;8.07;;;25.40;77.30;;;;;;5042292;28;20079;-84
2023/08/12 06:16:45;;;;;;;8.95;8.10;;;25.40;77.30;;;;;;5042683;28;20040;-83
2023/08/12 06:19:10;;;;;;;9.05;8.15;;;25.40;77.10;;;;;;5040608;28;20076;-83
2023/08/12 06:21:36;;;;;;;8.95;7.93;;;25.40;77.30;;;;;;5041597;28;20142;-84
2023/08/12 06:24:02;;;;;;;8.65;7.85;;;25.40;77.30;;;;;;5042145;28;20086;-82
2023/08/12 06:26:28;;;;;;;9.60;7.60;;;25.40;77.20;;;;;;5040592;28;20036;-80
2023/08/12 06:28:54;;;;;;;9.27;8.35;;;25.50;77.10;;;;;;5040497;28;20048;-84
2023/08/12 06:31:20;;;;;;;10.57;7.65;;;25.50;77.00;;;;;;5044364;28;20515;-84
2023/08/12 06:33:46;;;;;;;9.10;8.25;;;25.50;76.80;;;;;;5042499;28;20037;-83
2023/08/12 06:36:12;;;;;;;9.48;8.05;;;25.50;76.80;;;;;;5040429;28;20041;-85
2023/08/12 06:38:38;;;;;;;8.75;7.93;;;25.60;76.90;;;;;;5041141;28;20440;-84
2023/08/12 06:41:04;;;;;;;8.02;7.32;;;25.60;76.90;;;;;;5019276;28;20084;-84
2023/08/12 06:43:30;;;;;;;8.75;7.80;;;25.60;76.60;;;;;;5041201;28;20123;-84
2023/08/12 06:45:56;;;;;;;8.90;7.50;;;25.60;76.30;;;;;;5038656;28;20459;-84
2023/08/12 06:48:22;;;;;;;9.70;8.38;;;25.60;76.20;;;;;;5010112;28;20033;-81
2023/08/12 06:50:56;;;;;;;8.75;7.85;;;25.60;76.00;;;;;;5040034;28;20078;-85
2023/08/12 06:53:22;;;;;;;8.80;8.10;;;25.70;76.00;;;;;;5041513;28;20102;-84
2023/08/12 06:55:48;;;;;;;10.15;8.23;;;25.70;76.10;;;;;;5040632;28;20037;-84
2023/08/12 06:58:17;;;;;;;8.13;7.32;;;25.70;76.00;;;;;;5041713;28;20037;-85
2023/08/12 07:00:43;;;;;;;8.27;7.47;;;25.70;75.70;;;;;;5042377;28;20057;-82
2023/08/12 07:03:09;;;;;;;8.52;7.72;;;25.70;75.90;;;;;;5024120;28;20025;-83
2023/08/12 07:05:35;;;;;;;8.18;7.47;;;25.70;75.70;;;;;;5040666;28;20103;-85
2023/08/12 07:08:01;;;;;;;10.73;7.53;;;25.80;75.60;;;;;;5023662;28;20029;-84
2023/08/12 07:10:27;;;;;;;8.23;7.43;;;25.80;75.60;;;;;;5039021;28;20033;-85
2023/08/12 07:12:53;;;;;;;9.02;8.20;;;25.90;75.50;;;;;;5042146;28;20045;-85
2023/08/12 07:15:19;;;;;;;8.15;7.38;;;26.00;75.30;;;;;;5042039;28;20036;-84
2023/08/12 07:17:45;;;;;;;8.35;7.45;;;26.00;75.10;;;;;;5038161;28;20033;-85
2023/08/12 07:20:10;;;;;;;8.65;7.75;;;26.10;75.10;;;;;;5040502;28;20079;-81
2023/08/12 07:22:36;;;;;;;8.70;7.90;;;26.10;74.90;;;;;;5039407;28;20044;-85
2023/08/12 07:25:02;;;;;;;8.18;7.38;;;26.10;74.70;;;;;;5041742;28;20557;-81
2023/08/12 07:27:28;;;;;;;9.23;8.43;;;26.20;74.70;;;;;;5042795;28;20037;-85
2023/08/12 07:29:54;;;;;;;8.77;7.93;;;26.20;74.30;;;;;;5021512;28;20463;-86
2023/08/12 07:32:21;;;;;;;8.32;7.63;;;26.20;73.90;;;;;;5039570;28;20522;-85
2023/08/12 07:34:47;;;;;;;9.57;8.40;;;26.20;73.90;;;;;;5039499;28;20040;-83
2023/08/12 07:37:13;;;;;;;9.75;8.52;;;26.20;73.60;;;;;;5041673;28;20033;-84
2023/08/12 07:39:39;;;;;;;9.23;7.82;;;26.20;73.40;;;;;;5040453;28;20411;-83
2023/08/12 07:42:05;;;;;;;11.98;8.63;;;26.20;73.50;;;;;;5021008;28;20034;-83
2023/08/12 07:44:31;;;;;;;8.80;7.90;;;26.30;73.30;;;;;;5039896;28;20447;-85
2023/08/12 07:46:57;;;;;;;9.05;8.15;;;26.20;73.20;;;;;;5039887;28;20040;-86
2023/08/12 07:49:23;;;;;;;10.48;7.88;;;26.20;73.20;;;;;;5039735;28;20098;-80
2023/08/12 07:51:49;;;;;;;8.80;8.00;;;26.20;73.00;;;;;;5040192;28;20067;-85
2023/08/12 07:54:15;;;;;;;8.73;7.93;;;26.20;73.20;;;;;;5041208;28;20036;-84
2023/08/12 07:56:41;;;;;;;10.27;8.10;;;26.20;72.30;;;;;;5039542;28;20037;-84
2023/08/12 07:59:07;;;;;;;10.10;8.85;;;26.20;73.00;;;;;;5042775;28;20045;-83
2023/08/12 08:01:33;;;;;;;8.88;7.97;;;26.20;73.00;;;;;;5043024;28;20036;-84
2023/08/12 08:03:59;;;;;;;9.27;8.18;;;26.20;72.80;;;;;;5044526;28;20461;-82
2023/08/12 08:06:25;;;;;;;8.43;7.63;;;26.20;72.80;;;;;;5045299;28;20033;-82
2023/08/12 08:08:51;;;;;;;9.43;7.90;;;26.20;72.70;;;;;;5043569;28;20067;-84
2023/08/12 08:11:17;;;;;;;8.70;7.90;;;26.20;73.00;;;;;;5043279;28;20082;-85
2023/08/12 08:13:43;;;;;;;10.25;8.23;;;26.20;73.00;;;;;;5043323;28;20800;-81
2023/08/12 08:16:09;;;;;;;9.30;8.35;;;26.10;72.80;;;;;;5030655;28;20037;-84
2023/08/12 08:18:43;;;;;;;10.57;9.02;;;26.10;72.90;;;;;;5042138;28;20073;-85
2023/08/12 08:21:09;;;;;;;9.63;8.65;;;26.10;73.10;;;;;;5044825;28;20128;-85
2023/08/12 08:23:35;;;;;;;10.57;8.82;;;26.10;73.20;;;;;;5044509;28;20132;-85
2023/08/12 08:26:01;;;;;;;9.88;8.68;;;26.00;73.40;;;;;;5022621;28;20040;-84
2023/08/12 08:28:27;;;;;;;9.77;8.73;;;26.10;73.60;;;;;;5042499;28;20091;-83
2023/08/12 08:30:53;;;;;;;9.68;8.68;;;26.10;73.70;;;;;;5044293;28;20049;-85
2023/08/12 08:33:19;;;;;;;10.13;8.90;;;26.10;73.70;;;;;;5044098;28;20419;-86
2023/08/12 08:35:45;;;;;;;10.60;8.73;;;26.10;74.00;;;;;;4996584;28;20032;-82
2023/08/12 08:38:11;;;;;;;10.80;8.88;;;26.10;74.20;;;;;;5045175;28;20033;-85
2023/08/12 08:40:37;;;;;;;11.38;8.80;;;26.10;74.30;;;;;;5044365;28;20049;-84
2023/08/12 08:43:08;;;;;;;9.55;8.65;;;26.10;74.40;;;;;;5042981;28;20550;-84
2023/08/12 08:45:34;;;;;;;10.07;8.57;;;26.10;74.50;;;;;;5044607;28;20124;-85
2023/08/12 08:48:02;;;;;;;9.98;8.82;;;26.10;74.50;;;;;;5025994;28;20048;-85
2023/08/12 08:50:30;;;;;;;9.75;8.85;;;26.10;74.70;;;;;;5025291;28;20523;-83
2023/08/12 08:52:56;;;;;;;14.82;9.27;;;26.10;74.70;;;;;;5044399;28;20519;-85
2023/08/12 08:55:23;;;;;;;10.07;8.60;;;26.10;74.90;;;;;;5042278;28;20041;-85
2023/08/12 08:57:50;;;;;;;10.77;8.90;;;26.10;75.00;;;;;;5041598;28;20039;-85
2023/08/12 09:00:16;;;;;;;13.48;9.50;;;26.10;75.20;;;;;;5043403;28;20455;-85
2023/08/12 09:02:45;;;;;;;10.90;9.10;;;26.10;75.30;;;;;;5044854;28;20123;-84
2023/08/12 09:05:14;;;;;;;11.48;9.40;;;26.10;75.20;;;;;;5042005;28;20116;-83
2023/08/12 09:07:41;;;;;;;9.82;8.82;;;26.10;75.40;;;;;;5041850;28;20037;-84
2023/08/12 09:10:10;;;;;;;13.23;9.50;;;26.10;75.40;;;;;;4995871;28;20052;-85
2023/08/12 09:12:36;;;;;;;10.05;8.60;;;26.10;75.50;;;;;;5007991;28;20041;-80
2023/08/12 09:15:04;;;;;;;12.00;9.02;;;26.00;75.20;;;;;;5027935;28;20087;-85
2023/08/12 09:17:31;;;;;;;10.05;9.00;;;26.00;75.40;;;;;;5023910;28;20124;-83
2023/08/12 09:19:58;;;;;;;10.07;9.15;;;26.10;75.50;;;;;;5023336;28;20063;-84
2023/08/12 09:22:27;;;;;;;9.98;8.95;;;26.00;75.40;;;;;;5008461;28;20049;-81
2023/08/12 09:24:59;;;;;;;11.25;9.25;;;26.00;75.50;;;;;;5025395;28;20041;-86
2023/08/12 09:27:25;;;;;;;10.50;9.38;;;26.00;75.50;;;;;;4995689;28;20073;-83
2023/08/12 09:29:57;;;;;;;10.27;9.10;;;26.00;76.00;;;;;;5041909;28;20597;-84
2023/08/12 09:32:23;;;;;;;10.07;9.05;;;26.00;75.30;;;;;;5028827;28;20036;-84
2023/08/12 09:34:56;;;;;;;10.25;9.25;;;26.00;75.40;;;;;;5025058;28;20041;-85
2023/08/12 09:37:24;;;;;;;9.98;8.98;;;26.00;75.20;;;;;;5040794;28;20033;-85
2023/08/12 09:39:52;;;;;;;10.32;9.32;;;26.00;75.60;;;;;;5010672;28;20036;-85
2023/08/12 09:42:18;;;;;;;10.23;8.73;;;26.00;75.70;;;;;;5013565;28;20029;-86
2023/08/12 09:44:45;;;;;;;10.02;9.10;;;26.00;75.50;;;;;;5010714;28;20512;-84
2023/08/12 09:47:11;;;;;;;10.48;9.20;;;26.00;75.50;;;;;;5025320;28;20303;-85
2023/08/12 09:49:39;;;;;;;10.75;9.65;;;26.00;75.60;;;;;;5044276;28;20041;-86
2023/08/12 09:52:06;;;;;;;10.98;9.57;;;25.90;75.70;;;;;;5041989;28;20119;-85
2023/08/12 09:54:33;;;;;;;10.50;9.43;;;25.90;75.70;;;;;;5027190;28;20029;-86
2023/08/12 09:57:01;;;;;;;10.93;9.77;;;25.90;75.90;;;;;;5027646;28;20033;-86
2023/08/12 09:59:35;;;;;;;10.38;9.48;;;25.90;75.90;;;;;;5046538;28;20386;-84
2023/08/12 10:02:07;;;;;;;10.90;8.93;;;25.90;75.90;;;;;;5030738;28;20059;-83
2023/08/12 10:04:40;;;;;;;11.07;9.63;;;25.90;75.90;;;;;;5030485;28;20689;-85
2023/08/12 10:07:08;;;;;;;10.25;9.18;;;25.90;75.70;;;;;;5024951;28;20040;-84
2023/08/12 10:09:35;;;;;;;10.68;9.77;;;25.90;75.80;;;;;;5043388;28;20040;-84
2023/08/12 10:12:02;;;;;;;10.77;9.68;;;25.90;75.80;;;;;;5010831;28;20040;-85
2023/08/12 10:14:29;;;;;;;10.73;9.43;;;25.90;75.90;;;;;;4995951;28;20040;-86
2023/08/12 10:16:56;;;;;;;10.55;9.45;;;25.90;76.10;;;;;;5041601;28;20432;-84
2023/08/12 10:19:25;;;;;;;10.68;9.52;;;25.90;76.40;;;;;;5006680;28;20048;-86
2023/08/12 10:21:56;;;;;;;11.65;9.93;;;25.80;76.50;;;;;;5041969;28;20036;-83
2023/08/12 10:24:24;;;;;;;10.55;9.50;;;25.80;76.50;;;;;;5024334;28;20187;-86
2023/08/12 10:26:52;;;;;;;11.00;10.00;;;25.80;76.70;;;;;;5041173;28;20045;-86
2023/08/12 10:29:19;;;;;;;11.35;9.70;;;25.80;76.90;;;;;;5026312;28;20071;-85
2023/08/12 10:31:47;;;;;;;11.00;9.90;;;25.80;77.30;;;;;;5010682;28;20122;-82
2023/08/12 10:34:24;;;;;;;12.27;10.00;;;25.70;77.10;;;;;;5021942;28;20065;-85
2023/08/12 10:37:02;;;;;;;11.63;10.32;;;25.80;77.50;;;;;;5006640;28;20037;-85
2023/08/12 10:39:31;;;;;;;12.23;11.02;;;25.70;77.40;;;;;;5022641;28;20115;-85
2023/08/12 10:41:58;;;;;;;11.38;10.27;;;25.70;77.40;;;;;;5040338;28;20443;-84
2023/08/12 10:44:51;;;;;;;11.65;10.35;;;25.80;77.30;;;;;;5009761;28;21482;-84
2023/08/12 10:47:17;;;;;;;12.02;10.82;;;25.80;77.40;;;;;;5015227;28;20415;-83
2023/08/12 10:49:48;;;;;;;11.95;10.77;;;25.70;77.30;;;;;;5028812;28;20086;-83
2023/08/12 10:52:30;;;;;;;14.27;10.68;;;25.70;77.40;;;;;;5040326;28;20087;-84
2023/08/12 10:55:16;;;;;;;12.45;10.35;;;25.70;77.50;;;;;;5041405;28;20465;-85
2023/08/12 10:57:42;;;;;;;12.63;10.18;;;25.70;77.50;;;;;;5041914;28;20455;-84
2023/08/12 11:00:13;;;;;;;12.38;10.13;;;25.70;77.80;;;;;;5023048;28;20068;-83
2023/08/12 11:02:40;;;;;;;12.30;11.05;;;25.70;77.60;;;;;;5038915;28;20063;-82
2023/08/12 11:05:11;;;;;;;14.07;10.85;;;25.80;77.60;;;;;;5040541;28;20037;-85
2023/08/12 11:07:45;;;;;;;11.65;10.45;;;25.80;77.80;;;;;;5026408;28;20509;-84
2023/08/12 11:10:17;;;;;;;11.95;10.75;;;25.70;77.70;;;;;;5039551;28;20037;-84
2023/08/12 11:12:51;;;;;;;12.30;10.85;;;25.80;77.80;;;;;;5040889;28;20059;-84
2023/08/12 11:15:17;;;;;;;12.45;10.65;;;25.80;77.90;;;;;;5016156;28;20045;-84
2023/08/12 11:17:46;;;;;;;12.07;10.88;;;25.80;78.00;;;;;;5040285;28;20494;-82
2023/08/12 11:20:13;;;;;;;12.35;11.10;;;25.70;77.90;;;;;;5042061;28;20128;-85
2023/08/12 11:22:43;;;;;;;13.40;11.55;;;25.70;78.00;;;;;;5041020;28;20163;-82
2023/08/12 11:25:14;;;;;;;13.18;11.38;;;25.70;78.10;;;;;;5021851;28;20167;-85
2023/08/12 11:27:45;;;;;;;13.75;12.25;;;25.70;78.10;;;;;;5039116;28;20037;-85
2023/08/12 11:30:17;;;;;;;12.18;10.98;;;25.70;78.10;;;;;;5042672;28;20041;-86
2023/08/12 11:32:45;;;;;;;17.90;10.70;;;25.80;78.10;;;;;;5043435;28;20866;-84
2023/08/12 11:35:12;;;;;;;12.10;10.85;;;25.80;78.00;;;;;;5044457;28;20543;-85
2023/08/12 11:37:39;;;;;;;12.32;11.02;;;25.80;78.00;;;;;;5042714;28;20037;-85
2023/08/12 11:40:08;;;;;;;12.10;10.55;;;25.70;78.20;;;;;;5042749;28;20045;-84
2023/08/12 11:42:38;;;;;;;12.35;10.82;;;25.80;78.10;;;;;;5045032;28;20021;-87
2023/08/12 11:45:07;;;;;;;12.85;11.55;;;25.80;78.10;;;;;;5042909;28;20037;-81
2023/08/12 11:47:38;;;;;;;13.10;10.75;;;25.70;78.10;;;;;;5030052;28;20124;-86
2023/08/12 11:50:06;;;;;;;13.60;10.77;;;25.70;78.20;;;;;;5044723;28;20041;-84
2023/08/12 11:52:32;;;;;;;11.00;9.90;;;25.70;78.10;;;;;;5043861;28;20041;-86
2023/08/12 11:54:59;;;;;;;11.30;10.05;;;25.70;78.20;;;;;;5043206;28;20064;-84
2023/08/12 11:57:27;;;;;;;11.63;10.07;;;25.70;78.10;;;;;;5044887;28;20052;-80
2023/08/12 12:00:00;;;;;;;13.50;11.00;;;25.70;78.20;;;;;;5025259;28;20040;-83
2023/08/12 12:02:26;;;;;;;11.27;10.05;;;25.70;78.40;;;;;;5043351;28;20038;-82
2023/08/12 12:04:52;;;;;;;11.40;9.82;;;25.70;78.50;;;;;;5026590;28;20488;-84
2023/08/12 12:07:25;;;;;;;11.52;9.50;;;25.70;78.60;;;;;;5044336;28;20033;-84
2023/08/12 12:09:52;;;;;;;10.63;9.40;;;25.60;78.90;;;;;;5012407;28;20068;-85
2023/08/12 12:12:22;;;;;;;12.77;9.98;;;25.60;78.90;;;;;;5030618;28;20064;-84
2023/08/12 12:14:48;;;;;;;11.07;9.90;;;25.60;79.10;;;;;;5044266;28;20041;-83
2023/08/12 12:17:15;;;;;;;10.40;9.35;;;25.60;79.30;;;;;;5044091;28;20033;-85
2023/08/12 12:19:44;;;;;;;11.43;9.93;;;25.60;79.40;;;;;;5042302;28;20060;-85
2023/08/12 12:22:09;;;;;;;13.07;9.85;;;25.50;79.70;;;;;;5042844;28;20045;-85
2023/08/12 12:24:46;;;;;;;11.30;9.75;;;25.60;79.70;;;;;;5043418;28;20029;-85
2023/08/12 12:27:15;;;;;;;12.40;9.88;;;25.60;79.90;;;;;;5042398;28;20052;-81
2023/08/12 12:29:41;;;;;;;14.07;10.57;;;25.60;79.90;;;;;;5043021;28;20071;-84
2023/08/12 12:32:07;;;;;;;12.85;10.15;;;25.60;80.00;;;;;;5026874;28;20045;-83
2023/08/12 12:34:33;;;;;;;11.10;9.85;;;25.50;80.10;;;;;;5017894;28;20539;-84
2023/08/12 12:36:59;;;;;;;10.52;9.52;;;25.50;80.30;;;;;;5042762;28;20028;-84
2023/08/12 12:39:25;;;;;;;11.25;9.43;;;25.50;80.40;;;;;;5045124;28;20423;-81
2023/08/12 12:41:51;;;;;;;11.85;9.65;;;25.50;80.20;;;;;;5042383;28;20033;-85